createdAt,value
2022-10-03T00:01:51.508Z,10.50
2022-10-03T00:04:39.982Z,10.40
2022-10-03T00:07:34.557Z,10.50
2022-10-03T00:10:20.138Z,10.40
2022-10-03T00:13:18.661Z,10.40
2022-10-03T00:16:04.566Z,10.40
2022-10-03T00:18:55.616Z,10.40
2022-10-03T00:21:50.517Z,10.40
2022-10-03T00:24:39.227Z,10.40
2022-10-03T00:27:35.297Z,10.40
2022-10-03T00:30:22.987Z,10.50
2022-10-03T00:33:08.695Z,10.50
2022-10-03T00:36:03.575Z,10.60
2022-10-03T00:39:18.564Z,10.60
2022-10-03T00:42:40.212Z,10.60
2022-10-03T00:45:41.024Z,10.60
2022-10-03T00:48:45.180Z,10.60
2022-10-03T00:51:31.163Z,10.60
2022-10-03T00:54:16.536Z,10.60
2022-10-03T00:57:05.511Z,10.60
2022-10-03T01:00:03.329Z,10.60
2022-10-03T01:02:55.628Z,10.70
2022-10-03T01:05:56.929Z,10.60
2022-10-03T01:09:09.526Z,10.70
2022-10-03T01:12:01.688Z,10.70
2022-10-03T01:14:53.801Z,10.60
2022-10-03T01:18:02.677Z,10.60
2022-10-03T01:20:48.056Z,10.60
2022-10-03T01:23:52.770Z,10.50
2022-10-03T01:26:49.119Z,10.50
2022-10-03T01:30:06.941Z,10.60
2022-10-03T01:32:53.118Z,10.60
2022-10-03T01:35:42.299Z,10.60
2022-10-03T01:38:40.284Z,10.60
2022-10-03T01:41:42.512Z,10.60
2022-10-03T01:44:40.591Z,10.60
2022-10-03T01:47:32.759Z,10.60
2022-10-03T01:50:25.515Z,10.70
2022-10-03T01:53:26.413Z,10.70
2022-10-03T01:56:12.236Z,10.80
2022-10-03T01:59:00.393Z,10.80
2022-10-03T02:01:58.473Z,10.80
2022-10-03T02:05:03.366Z,10.80
2022-10-03T02:07:59.764Z,10.80
2022-10-03T02:10:56.841Z,10.80
2022-10-03T02:13:45.354Z,10.80
2022-10-03T02:16:36.687Z,10.80
2022-10-03T02:19:25.615Z,10.70
2022-10-03T02:22:36.107Z,10.70
2022-10-03T02:25:24.340Z,10.70
2022-10-03T02:28:12.995Z,10.60
2022-10-03T02:31:17.412Z,10.70
2022-10-03T02:34:23.181Z,10.60
2022-10-03T02:37:15.071Z,10.60
2022-10-03T02:40:10.879Z,10.70
2022-10-03T02:42:57.442Z,10.70
2022-10-03T02:46:01.757Z,10.70
2022-10-03T02:48:47.992Z,10.70
2022-10-03T02:51:39.638Z,10.70
2022-10-03T02:54:25.549Z,10.80
2022-10-03T02:57:17.790Z,10.80
2022-10-03T03:00:14.977Z,10.80
2022-10-03T03:03:11.999Z,10.80
2022-10-03T03:05:57.376Z,10.80
2022-10-03T03:08:49.367Z,10.80
2022-10-03T03:11:47.684Z,10.80
2022-10-03T03:14:38.039Z,10.80
2022-10-03T03:17:26.993Z,10.70
2022-10-03T03:20:31.373Z,10.70
2022-10-03T03:23:20.088Z,10.60
2022-10-03T03:26:11.931Z,10.60
2022-10-03T03:29:12.888Z,10.60
2022-10-03T03:32:04.858Z,10.60
2022-10-03T03:35:10.796Z,10.60
2022-10-03T03:37:56.439Z,10.60
2022-10-03T03:40:53.069Z,10.50
2022-10-03T03:43:55.551Z,10.50
2022-10-03T03:46:44.052Z,10.40
2022-10-03T03:49:42.764Z,10.40
2022-10-03T03:52:35.202Z,10.30
2022-10-03T03:55:39.898Z,10.40
2022-10-03T03:58:36.503Z,10.40
2022-10-03T04:01:41.167Z,10.40
2022-10-03T04:04:52.139Z,10.50
2022-10-03T04:07:56.706Z,10.50
2022-10-03T04:10:51.617Z,10.50
2022-10-03T04:13:37.095Z,10.50
2022-10-03T04:16:53.413Z,10.50
2022-10-03T04:19:39.389Z,10.40
2022-10-03T04:22:39.075Z,10.50
2022-10-03T04:25:43.675Z,10.50
2022-10-03T04:28:35.800Z,10.40
2022-10-03T04:31:21.660Z,10.40
2022-10-03T04:34:10.608Z,10.50
2022-10-03T04:37:15.187Z,10.50
2022-10-03T04:40:10.292Z,10.50
2022-10-03T04:43:04.877Z,10.40
2022-10-03T04:46:09.251Z,10.40
2022-10-03T04:49:02.047Z,10.40
2022-10-03T04:51:55.203Z,10.50
2022-10-03T04:54:51.212Z,10.50
2022-10-03T04:57:45.788Z,10.50
2022-10-03T05:00:34.118Z,10.60
2022-10-03T05:03:26.925Z,10.60
2022-10-03T05:06:31.115Z,10.70
2022-10-03T05:09:17.090Z,10.70
2022-10-03T05:12:10.422Z,10.70
2022-10-03T05:14:55.774Z,10.70
2022-10-03T05:18:00.394Z,10.70
2022-10-03T05:20:46.072Z,10.60
2022-10-03T05:23:34.787Z,10.50
2022-10-03T05:26:45.473Z,10.60
2022-10-03T05:29:43.946Z,10.60
2022-10-03T05:32:40.390Z,10.60
2022-10-03T05:35:29.101Z,10.50
2022-10-03T05:38:21.157Z,10.50
2022-10-03T05:41:09.618Z,10.50
2022-10-03T05:44:01.501Z,10.60
2022-10-03T05:46:46.961Z,10.60
2022-10-03T05:49:42.851Z,10.70
2022-10-03T05:52:28.625Z,10.60
2022-10-03T05:55:14.194Z,10.60
2022-10-03T05:58:18.438Z,10.60
2022-10-03T06:01:23.054Z,10.60
2022-10-03T06:04:27.547Z,10.60
2022-10-03T06:07:25.603Z,10.60
2022-10-03T06:10:33.876Z,10.70
2022-10-03T06:13:27.341Z,11.60
2022-10-03T06:16:22.346Z,12.00
2022-10-03T06:19:20.223Z,12.10
2022-10-03T06:22:15.228Z,12.60
2022-10-03T06:25:13.758Z,13.20
2022-10-03T06:28:07.685Z,13.20
2022-10-03T06:30:53.365Z,13.20
2022-10-03T06:33:48.322Z,13.70
2022-10-03T06:36:53.197Z,13.30
2022-10-03T06:39:57.668Z,13.00
2022-10-03T06:43:00.196Z,13.40
2022-10-03T06:45:45.976Z,13.30
2022-10-03T06:49:07.307Z,13.00
2022-10-03T06:51:53.425Z,12.40
2022-10-03T06:54:48.395Z,12.10
2022-10-03T06:57:43.554Z,12.00
2022-10-03T07:00:32.269Z,12.30
2022-10-03T07:03:27.232Z,12.20
2022-10-03T07:06:33.470Z,11.90
2022-10-03T07:09:19.477Z,11.60
2022-10-03T07:12:15.410Z,11.40
2022-10-03T07:15:01.144Z,11.30
2022-10-03T07:17:54.393Z,11.20
2022-10-03T07:20:46.076Z,11.10
2022-10-03T07:23:52.624Z,11.10
2022-10-03T07:26:58.041Z,11.10
2022-10-03T07:29:59.135Z,11.20
2022-10-03T07:33:03.271Z,11.40
2022-10-03T07:36:26.659Z,11.40
2022-10-03T07:39:15.254Z,11.50
2022-10-03T07:42:04.228Z,11.80
2022-10-03T07:45:05.335Z,12.00
2022-10-03T07:48:06.686Z,12.00
2022-10-03T07:51:11.631Z,11.90
2022-10-03T07:54:04.754Z,11.90
2022-10-03T07:56:53.568Z,12.00
2022-10-03T07:59:52.426Z,12.30
2022-10-03T08:02:56.815Z,12.60
2022-10-03T08:06:01.313Z,12.60
2022-10-03T08:08:53.392Z,12.20
2022-10-03T08:11:57.724Z,11.70
2022-10-03T08:14:43.488Z,11.40
2022-10-03T08:17:35.363Z,11.30
2022-10-03T08:20:39.954Z,11.10
2022-10-03T08:23:44.251Z,11.10
2022-10-03T08:26:48.582Z,11.20
2022-10-03T08:29:34.343Z,11.30
2022-10-03T08:32:35.841Z,11.50
2022-10-03T08:35:29.150Z,11.60
2022-10-03T08:38:17.995Z,11.70
2022-10-03T08:41:06.921Z,11.80
2022-10-03T08:44:04.878Z,12.00
2022-10-03T08:46:50.758Z,12.10
2022-10-03T08:49:55.214Z,12.40
2022-10-03T08:52:41.112Z,12.40
2022-10-03T08:55:33.068Z,12.40
2022-10-03T08:58:25.042Z,12.10
2022-10-03T09:01:23.298Z,11.80
2022-10-03T09:04:27.212Z,11.70
2022-10-03T09:07:20.959Z,11.70
2022-10-03T09:10:25.511Z,11.70
2022-10-03T09:13:29.993Z,11.70
2022-10-03T09:16:18.547Z,11.70
2022-10-03T09:19:07.440Z,12.00
2022-10-03T09:21:53.414Z,12.20
2022-10-03T09:24:42.301Z,12.30
2022-10-03T09:27:46.902Z,12.60
2022-10-03T09:30:32.703Z,13.00
2022-10-03T09:33:28.983Z,13.20
2022-10-03T09:36:21.041Z,13.20
2022-10-03T09:39:13.044Z,13.20
2022-10-03T09:41:58.860Z,13.30
2022-10-03T09:44:44.328Z,13.50
2022-10-03T09:47:49.023Z,13.70
2022-10-03T09:50:56.662Z,13.70
2022-10-03T09:54:11.561Z,13.90
2022-10-03T09:57:11.744Z,13.70
2022-10-03T10:00:16.907Z,13.40
2022-10-03T10:03:25.595Z,13.30
2022-10-03T10:06:24.544Z,13.70
2022-10-03T10:09:30.614Z,13.80
2022-10-03T10:12:34.703Z,13.40
2022-10-03T10:15:29.642Z,12.80
2022-10-03T10:18:41.777Z,12.50
2022-10-03T10:21:52.859Z,12.10
2022-10-03T10:24:38.421Z,12.00
2022-10-03T10:27:43.118Z,11.80
2022-10-03T10:30:47.677Z,11.60
2022-10-03T10:33:48.699Z,11.30
2022-10-03T10:36:43.698Z,11.20
2022-10-03T10:39:29.256Z,11.10
2022-10-03T10:42:30.329Z,11.00
2022-10-03T10:45:36.098Z,10.80
2022-10-03T10:48:46.841Z,10.70
2022-10-03T10:51:51.239Z,10.60
2022-10-03T10:54:55.660Z,10.40
2022-10-03T10:57:41.455Z,10.40
2022-10-03T11:00:33.312Z,10.40
2022-10-03T11:03:37.716Z,10.50
2022-10-03T11:06:24.056Z,10.50
2022-10-03T11:09:12.979Z,10.80
2022-10-03T11:12:17.439Z,10.90
2022-10-03T11:15:21.890Z,10.90
2022-10-03T11:18:26.055Z,11.10
2022-10-03T11:21:30.437Z,11.30
2022-10-03T11:24:29.576Z,11.30
2022-10-03T11:27:15.010Z,11.30
2022-10-03T11:30:04.956Z,11.40
2022-10-03T11:32:53.806Z,11.50
2022-10-03T11:36:11.123Z,11.80
2022-10-03T11:39:02.790Z,12.00
2022-10-03T11:41:51.672Z,12.30
2022-10-03T11:44:46.232Z,12.50
2022-10-03T11:47:41.562Z,12.50
2022-10-03T11:50:29.795Z,12.60
2022-10-03T11:53:37.857Z,12.70
2022-10-03T11:56:23.880Z,13.00
2022-10-03T11:59:15.766Z,13.10
2022-10-03T12:02:13.915Z,13.30
2022-10-03T12:05:14.757Z,13.40
2022-10-03T12:08:24.904Z,13.40
2022-10-03T12:11:19.534Z,13.50
2022-10-03T12:14:27.705Z,13.40
2022-10-03T12:17:33.677Z,13.20
2022-10-03T12:20:30.741Z,13.00
2022-10-03T12:23:16.497Z,13.00
2022-10-03T12:26:03.587Z,12.80
2022-10-03T12:28:52.913Z,12.80
2022-10-03T12:32:01.879Z,12.80
2022-10-03T12:34:57.131Z,12.60
2022-10-03T12:37:58.915Z,12.60
2022-10-03T12:40:50.132Z,12.60
2022-10-03T12:43:44.359Z,12.70
2022-10-03T12:46:35.193Z,12.80
2022-10-03T12:49:36.554Z,12.60
2022-10-03T12:52:22.246Z,12.40
2022-10-03T12:55:37.285Z,12.60
2022-10-03T12:58:41.360Z,12.80
2022-10-03T13:01:45.646Z,12.90
2022-10-03T13:04:52.904Z,12.80
2022-10-03T13:08:13.857Z,12.10
2022-10-03T13:11:17.713Z,11.80
2022-10-03T13:14:22.278Z,11.90
2022-10-03T13:17:19.332Z,12.10
2022-10-03T13:20:10.794Z,12.40
2022-10-03T13:22:59.206Z,12.50
2022-10-03T13:26:08.853Z,12.50
2022-10-03T13:29:30.124Z,12.40
2022-10-03T13:32:36.689Z,12.20
2022-10-03T13:35:51.752Z,12.00
2022-10-03T13:38:47.870Z,11.80
2022-10-03T13:41:37.351Z,11.80
2022-10-03T13:44:28.301Z,11.80
2022-10-03T13:47:23.454Z,12.10
2022-10-03T13:50:24.633Z,12.10
2022-10-03T13:53:13.735Z,12.10
2022-10-03T13:56:04.452Z,12.30
2022-10-03T13:58:58.916Z,12.50
2022-10-03T14:01:57.170Z,12.60
2022-10-03T14:04:43.050Z,12.70
2022-10-03T14:07:44.250Z,12.80
2022-10-03T14:10:30.061Z,13.00
2022-10-03T14:13:31.385Z,13.00
2022-10-03T14:16:17.906Z,13.20
2022-10-03T14:19:36.768Z,13.40
2022-10-03T14:22:28.412Z,13.60
2022-10-03T14:25:33.494Z,13.60
2022-10-03T14:28:24.539Z,13.80
2022-10-03T14:31:36.715Z,13.80
2022-10-03T14:34:34.466Z,13.70
2022-10-03T14:37:20.109Z,13.50
2022-10-03T14:40:15.111Z,13.50
2022-10-03T14:43:10.847Z,13.60
2022-10-03T14:45:57.828Z,13.60
2022-10-03T14:48:46.354Z,13.50
2022-10-03T14:51:40.647Z,13.30
2022-10-03T14:54:27.855Z,13.20
2022-10-03T14:57:39.662Z,13.20
2022-10-03T15:00:38.969Z,13.00
2022-10-03T15:03:29.027Z,13.00
2022-10-03T15:06:17.956Z,12.90
2022-10-03T15:09:17.013Z,12.90
2022-10-03T15:12:25.174Z,12.70
2022-10-03T15:15:15.861Z,12.50
2022-10-03T15:18:14.672Z,12.10
2022-10-03T15:21:00.755Z,11.90
2022-10-03T15:23:47.631Z,11.80
2022-10-03T15:26:34.780Z,11.70
2022-10-03T15:29:20.921Z,11.60
2022-10-03T15:32:19.539Z,11.40
2022-10-03T15:35:06.181Z,11.40
2022-10-03T15:37:57.683Z,11.30
